createdAt,value
2023-05-24T00:00:13.165Z,18.28
2023-05-24T00:02:42.632Z,18.24
2023-05-24T00:05:11.297Z,18.21
2023-05-24T00:07:39.800Z,18.17
2023-05-24T00:10:09.667Z,18.13
2023-05-24T00:12:37.681Z,18.09
2023-05-24T00:15:06.573Z,18.07
2023-05-24T00:17:41.720Z,18.06
2023-05-24T00:20:14.690Z,18.05
2023-05-24T00:22:44.817Z,18.04
2023-05-24T00:25:13.909Z,18.04
2023-05-24T00:27:41.928Z,18.04
2023-05-24T00:30:10.167Z,18.04
2023-05-24T00:32:38.406Z,18.03
2023-05-24T00:35:07.114Z,17.96
2023-05-24T00:37:35.494Z,17.90
2023-05-24T00:40:04.802Z,17.82
2023-05-24T00:42:32.351Z,17.76
2023-05-24T00:45:00.640Z,17.76
2023-05-24T00:47:28.212Z,17.73
2023-05-24T00:49:56.261Z,17.68
2023-05-24T00:52:24.334Z,17.68
2023-05-24T00:54:52.202Z,17.71
2023-05-24T00:57:20.171Z,17.74
2023-05-24T00:59:49.773Z,17.76
2023-05-24T01:02:18.749Z,17.73
2023-05-24T01:04:49.220Z,17.67
2023-05-24T01:07:38.359Z,17.60
2023-05-24T01:10:28.345Z,17.57
2023-05-24T01:13:20.931Z,17.58
2023-05-24T01:15:53.251Z,17.54
2023-05-24T01:18:30.757Z,17.52
2023-05-24T01:21:18.838Z,17.53
2023-05-24T01:23:54.958Z,17.54
2023-05-24T01:26:30.921Z,17.55
2023-05-24T01:28:59.158Z,17.56
2023-05-24T01:31:27.294Z,17.53
2023-05-24T01:33:55.433Z,17.48
2023-05-24T01:36:23.619Z,17.43
2023-05-24T01:38:51.912Z,17.41
2023-05-24T01:41:28.080Z,17.43
2023-05-24T01:44:12.592Z,17.48
2023-05-24T01:46:40.743Z,17.49
2023-05-24T01:49:26.762Z,17.51
2023-05-24T01:52:05.714Z,17.51
2023-05-24T01:54:34.990Z,17.47
2023-05-24T01:57:05.668Z,17.43
2023-05-24T01:59:33.900Z,17.44
2023-05-24T02:02:02.521Z,17.46
2023-05-24T02:04:30.964Z,17.47
2023-05-24T02:06:59.234Z,17.47
2023-05-24T02:09:27.429Z,17.49
2023-05-24T02:11:57.014Z,17.52
2023-05-24T02:14:25.494Z,17.55
2023-05-24T02:16:59.167Z,17.58
2023-05-24T02:19:27.810Z,17.61
2023-05-24T02:21:55.954Z,17.64
2023-05-24T02:24:24.334Z,17.67
2023-05-24T02:26:52.319Z,17.68
2023-05-24T02:29:22.115Z,17.68
2023-05-24T02:31:56.764Z,17.72
2023-05-24T02:34:25.222Z,17.76
2023-05-24T02:36:56.163Z,17.79
2023-05-24T02:39:24.230Z,17.81
2023-05-24T02:41:52.881Z,17.84
2023-05-24T02:44:20.986Z,17.86
2023-05-24T02:46:49.185Z,17.87
2023-05-24T02:49:17.645Z,17.87
2023-05-24T02:51:46.218Z,17.85
2023-05-24T02:54:14.394Z,17.82
2023-05-24T02:56:42.777Z,17.79
2023-05-24T02:59:11.772Z,17.80
2023-05-24T03:01:40.896Z,17.82
2023-05-24T03:04:09.490Z,17.84
2023-05-24T03:06:38.445Z,17.86
2023-05-24T03:09:07.015Z,17.88
2023-05-24T03:11:35.293Z,17.88
2023-05-24T03:14:03.873Z,17.86
2023-05-24T03:16:32.383Z,17.87
2023-05-24T03:19:00.935Z,17.89
2023-05-24T03:21:29.316Z,17.91
2023-05-24T03:23:58.373Z,17.95
2023-05-24T03:26:27.264Z,18.00
2023-05-24T03:28:57.117Z,18.03
2023-05-24T03:31:30.041Z,18.05
2023-05-24T03:33:58.907Z,18.10
2023-05-24T03:36:29.422Z,18.14
2023-05-24T03:38:58.708Z,18.17
2023-05-24T03:41:28.122Z,18.21
2023-05-24T03:43:59.167Z,18.26
2023-05-24T03:46:28.319Z,18.30
2023-05-24T03:48:56.768Z,18.34
2023-05-24T03:51:29.908Z,18.39
2023-05-24T03:53:58.410Z,18.43
2023-05-24T03:56:27.623Z,18.49
2023-05-24T03:58:58.236Z,18.53
2023-05-24T04:01:33.187Z,18.56
2023-05-24T04:04:04.010Z,18.59
2023-05-24T04:06:32.174Z,18.60
2023-05-24T04:09:01.270Z,18.58
2023-05-24T04:11:30.304Z,18.57
2023-05-24T04:14:00.931Z,18.57
2023-05-24T04:16:29.612Z,18.58
2023-05-24T04:18:58.259Z,18.59
2023-05-24T04:21:26.540Z,18.60
2023-05-24T04:23:56.470Z,18.65
2023-05-24T04:26:24.726Z,18.71
2023-05-24T04:28:52.908Z,18.78
2023-05-24T04:31:21.326Z,18.81
2023-05-24T04:33:50.498Z,18.84
2023-05-24T04:36:18.597Z,18.90
2023-05-24T04:38:46.733Z,18.98
2023-05-24T04:41:15.549Z,19.02
2023-05-24T04:43:44.002Z,19.04
2023-05-24T04:46:15.428Z,19.09
2023-05-24T04:48:44.034Z,19.17
2023-05-24T04:51:12.418Z,19.24
2023-05-24T04:53:40.594Z,19.31
2023-05-24T04:56:08.978Z,19.36
2023-05-24T04:58:38.762Z,19.41
2023-05-24T05:01:09.098Z,19.45
2023-05-24T05:03:37.451Z,19.47
2023-05-24T05:06:05.833Z,19.49
2023-05-24T05:08:34.336Z,19.51
2023-05-24T05:11:03.335Z,19.52
2023-05-24T05:13:31.662Z,19.53
2023-05-24T05:15:59.927Z,19.53
2023-05-24T05:18:28.151Z,19.53
2023-05-24T05:20:56.327Z,19.56
2023-05-24T05:23:24.704Z,19.57
2023-05-24T05:25:52.613Z,19.59
2023-05-24T05:28:21.368Z,19.63
2023-05-24T05:30:49.458Z,19.67
2023-05-24T05:33:18.639Z,19.74
2023-05-24T05:35:46.796Z,19.81
2023-05-24T05:38:14.991Z,19.84
2023-05-24T05:40:43.480Z,19.85
2023-05-24T05:43:11.946Z,19.85
2023-05-24T05:45:40.740Z,19.90
2023-05-24T05:48:08.792Z,19.99
2023-05-24T05:50:37.276Z,20.10
2023-05-24T05:53:05.569Z,20.19
2023-05-24T05:55:34.053Z,20.30
2023-05-24T05:58:02.115Z,20.38
2023-05-24T06:03:47.335Z,20.54
2023-05-24T06:06:15.704Z,20.59
2023-05-24T06:08:43.758Z,20.65
2023-05-24T06:11:12.243Z,20.69
2023-05-24T06:13:40.101Z,20.69
2023-05-24T06:16:10.009Z,20.78
2023-05-24T06:18:39.188Z,20.87
2023-05-24T06:21:11.131Z,20.97
2023-05-24T06:23:39.407Z,21.08
2023-05-24T06:26:10.684Z,21.19
2023-05-24T06:28:38.966Z,21.26
2023-05-24T06:31:07.457Z,21.33
2023-05-24T06:33:37.745Z,21.43
2023-05-24T06:36:06.886Z,21.51
2023-05-24T06:38:36.576Z,21.57
2023-05-24T06:41:04.961Z,21.59
2023-05-24T06:43:33.783Z,21.61
2023-05-24T06:46:02.073Z,21.62
2023-05-24T06:48:30.121Z,21.65
2023-05-24T06:50:58.552Z,21.68
2023-05-24T06:53:26.574Z,21.75
2023-05-24T06:55:56.946Z,21.83
2023-05-24T06:58:26.159Z,21.94
2023-05-24T07:00:54.563Z,22.05
2023-05-24T07:03:22.707Z,22.15
2023-05-24T07:05:51.151Z,22.26
2023-05-24T07:08:19.191Z,22.34
2023-05-24T07:10:47.246Z,22.46
2023-05-24T07:13:15.343Z,22.60
2023-05-24T07:16:03.442Z,22.72
2023-05-24T07:18:31.838Z,22.84
2023-05-24T07:21:01.245Z,22.92
2023-05-24T07:23:29.520Z,22.93
2023-05-24T07:25:57.648Z,22.97
2023-05-24T07:28:25.512Z,23.09
2023-05-24T07:30:53.729Z,23.24
2023-05-24T07:33:22.278Z,23.40
2023-05-24T07:35:54.090Z,23.55
2023-05-24T07:38:22.458Z,23.67
2023-05-24T07:40:51.554Z,23.79
2023-05-24T07:43:20.276Z,23.83
2023-05-24T07:45:48.408Z,23.78
2023-05-24T07:48:16.543Z,23.68
2023-05-24T07:50:48.907Z,23.64
2023-05-24T07:53:17.124Z,23.58
2023-05-24T07:55:45.540Z,23.53
2023-05-24T07:58:13.440Z,23.48
2023-05-24T08:00:42.313Z,23.37
2023-05-24T08:03:13.683Z,23.27
2023-05-24T08:05:43.023Z,23.23
2023-05-24T08:08:11.428Z,23.20
2023-05-24T08:10:39.456Z,23.12
2023-05-24T08:13:08.791Z,22.99
2023-05-24T08:15:36.726Z,22.85
2023-05-24T08:18:06.928Z,22.73
2023-05-24T08:20:36.583Z,22.58
2023-05-24T08:23:04.985Z,22.39
2023-05-24T08:25:33.167Z,22.20
2023-05-24T08:28:02.251Z,22.04
2023-05-24T08:30:31.174Z,21.90
2023-05-24T08:33:02.393Z,21.77
2023-05-24T08:35:30.591Z,21.70
2023-05-24T08:37:58.779Z,21.66
2023-05-24T08:40:26.922Z,21.61
2023-05-24T08:42:54.878Z,21.56
2023-05-24T08:45:23.128Z,21.56
2023-05-24T08:47:52.213Z,21.54
2023-05-24T08:50:20.523Z,21.54
2023-05-24T08:52:48.661Z,21.60
2023-05-24T08:55:17.114Z,21.66
2023-05-24T08:57:46.112Z,21.74
2023-05-24T09:00:15.035Z,21.82
2023-05-24T09:02:44.019Z,21.90
2023-05-24T09:05:17.728Z,21.99
2023-05-24T09:07:46.176Z,22.05
2023-05-24T09:10:16.752Z,22.12
2023-05-24T09:12:55.217Z,22.21
2023-05-24T09:15:23.277Z,22.26
2023-05-24T09:17:51.508Z,22.33
2023-05-24T09:20:21.087Z,22.40
2023-05-24T09:22:52.096Z,22.51
2023-05-24T09:25:20.819Z,22.62
2023-05-24T09:27:52.427Z,22.73
2023-05-24T09:30:22.000Z,22.87
2023-05-24T09:33:01.011Z,23.01
2023-05-24T09:35:29.111Z,23.14
2023-05-24T09:38:00.262Z,23.30
2023-05-24T09:40:29.978Z,23.53
2023-05-24T09:43:06.369Z,23.78
2023-05-24T09:45:47.663Z,24.10
2023-05-24T09:48:18.794Z,24.46
2023-05-24T09:51:23.984Z,24.76
2023-05-24T09:53:54.650Z,25.15
2023-05-24T09:56:23.933Z,25.47
2023-05-24T09:58:52.353Z,25.68
2023-05-24T10:01:26.183Z,25.70
2023-05-24T10:03:55.983Z,25.64
2023-05-24T10:06:24.512Z,25.57
2023-05-24T10:08:52.650Z,25.55
2023-05-24T10:11:21.471Z,25.55
2023-05-24T10:13:49.679Z,25.53
2023-05-24T10:16:17.660Z,25.49
2023-05-24T10:18:46.065Z,25.51
2023-05-24T10:21:14.239Z,25.68
2023-05-24T10:23:43.276Z,25.92
2023-05-24T10:26:14.214Z,26.20
2023-05-24T10:28:46.683Z,26.37
2023-05-24T10:31:33.468Z,26.39
2023-05-24T10:34:07.952Z,26.35
2023-05-24T10:36:40.212Z,26.31
2023-05-24T10:39:11.498Z,26.28
2023-05-24T10:41:45.836Z,26.27
2023-05-24T10:44:14.838Z,26.31
2023-05-24T10:47:04.049Z,26.36
2023-05-24T10:49:33.544Z,26.42
2023-05-24T10:52:03.317Z,26.46
2023-05-24T10:54:31.276Z,26.49
2023-05-24T10:57:05.688Z,26.55
2023-05-24T10:59:37.958Z,26.73
2023-05-24T11:02:10.104Z,26.99
2023-05-24T11:04:43.693Z,27.21
2023-05-24T11:07:11.829Z,27.27
2023-05-24T11:09:53.157Z,27.23
2023-05-24T11:12:23.008Z,27.11
2023-05-24T11:14:52.595Z,26.97
2023-05-24T11:17:23.825Z,26.81
2023-05-24T11:19:55.226Z,26.55
2023-05-24T11:22:25.651Z,26.20
2023-05-24T11:24:53.764Z,25.91
2023-05-24T11:27:21.999Z,25.64
2023-05-24T11:29:50.237Z,25.21
2023-05-24T11:32:20.773Z,24.67
2023-05-24T11:34:48.796Z,24.25
2023-05-24T11:37:18.441Z,23.85
2023-05-24T11:39:51.339Z,23.54
2023-05-24T11:42:19.863Z,23.29
2023-05-24T11:44:48.467Z,23.02
2023-05-24T11:47:16.640Z,22.80
2023-05-24T11:49:44.299Z,22.64
2023-05-24T11:52:12.394Z,22.53
2023-05-24T11:54:43.051Z,22.42
2023-05-24T11:57:14.427Z,22.36
2023-05-24T11:59:42.110Z,22.30
2023-05-24T12:02:09.722Z,22.27
2023-05-24T12:04:37.785Z,22.26
2023-05-24T12:07:05.874Z,22.30
2023-05-24T12:09:33.843Z,22.37
2023-05-24T12:12:02.597Z,22.49
2023-05-24T12:14:31.672Z,22.65
2023-05-24T12:17:00.206Z,22.84
2023-05-24T12:19:36.988Z,23.08
2023-05-24T12:22:08.212Z,23.37
2023-05-24T12:24:37.233Z,23.68
2023-05-24T12:27:08.995Z,24.05
2023-05-24T12:29:40.024Z,24.50
2023-05-24T12:32:13.181Z,24.87
2023-05-24T12:34:45.112Z,25.04
2023-05-24T12:37:13.950Z,25.05
2023-05-24T12:39:44.794Z,24.93
2023-05-24T12:42:14.109Z,24.73
2023-05-24T12:44:45.642Z,24.55
2023-05-24T12:47:14.740Z,24.36
2023-05-24T12:49:43.920Z,24.09
2023-05-24T12:52:14.803Z,23.88
2023-05-24T12:54:43.507Z,23.71
2023-05-24T12:57:33.176Z,23.57
2023-05-24T13:00:06.906Z,23.41
2023-05-24T13:02:45.877Z,23.27
2023-05-24T13:05:28.740Z,23.14
2023-05-24T13:08:01.916Z,23.00
2023-05-24T13:10:30.764Z,22.84
2023-05-24T13:12:59.731Z,22.75
2023-05-24T13:15:28.653Z,22.71
2023-05-24T13:17:56.866Z,22.64
2023-05-24T13:20:25.211Z,22.55
2023-05-24T13:22:53.851Z,22.44
2023-05-24T13:25:22.847Z,22.39
2023-05-24T13:27:51.717Z,22.29
2023-05-24T13:30:27.646Z,22.16
2023-05-24T13:32:56.264Z,22.05
2023-05-24T13:35:24.524Z,21.87
2023-05-24T13:37:54.554Z,21.75
2023-05-24T13:40:25.232Z,21.76
2023-05-24T13:42:57.831Z,21.68
2023-05-24T13:45:25.823Z,21.50
2023-05-24T13:47:58.538Z,21.34
2023-05-24T13:50:26.983Z,21.21
2023-05-24T13:52:57.988Z,21.09
2023-05-24T13:55:26.172Z,21.02
2023-05-24T13:57:55.802Z,20.97
2023-05-24T14:00:24.516Z,20.91
2023-05-24T14:02:53.584Z,20.86
2023-05-24T14:07:55.180Z,20.78
2023-05-24T14:10:23.891Z,20.75
2023-05-24T14:13:10.873Z,20.78
2023-05-24T14:15:40.291Z,20.87
2023-05-24T14:18:08.942Z,20.96
2023-05-24T14:20:38.321Z,21.06
2023-05-24T14:23:10.194Z,21.13
2023-05-24T14:25:38.406Z,21.22
2023-05-24T14:28:08.880Z,21.27
2023-05-24T14:30:40.360Z,21.30
2023-05-24T14:33:08.714Z,21.31
2023-05-24T14:35:40.207Z,21.28
2023-05-24T14:38:10.363Z,21.22
2023-05-24T14:40:40.319Z,21.15
2023-05-24T14:43:10.808Z,21.11
2023-05-24T14:45:42.323Z,21.12
2023-05-24T14:48:12.330Z,21.11
2023-05-24T14:50:41.385Z,21.12
2023-05-24T14:53:12.733Z,21.19
2023-05-24T14:55:42.453Z,21.23
2023-05-24T14:58:14.371Z,21.24
2023-05-24T15:00:43.140Z,21.18
2023-05-24T15:03:15.155Z,21.13
2023-05-24T15:05:43.432Z,21.08
2023-05-24T15:08:11.771Z,21.04
2023-05-24T15:10:40.335Z,21.07
2023-05-24T15:13:13.061Z,21.15
2023-05-24T15:15:47.748Z,21.22
2023-05-24T15:18:38.825Z,21.29
2023-05-24T15:21:07.932Z,21.35
2023-05-24T15:23:36.658Z,21.41
2023-05-24T15:26:04.638Z,21.48
2023-05-24T15:28:32.743Z,21.55
2023-05-24T15:31:02.106Z,21.59
2023-05-24T15:33:32.902Z,21.60
2023-05-24T15:36:01.511Z,21.59
2023-05-24T15:38:30.732Z,21.58
2023-05-24T15:40:58.529Z,21.58
2023-05-24T15:43:29.961Z,21.58
2023-05-24T15:46:00.889Z,21.57
2023-05-24T15:48:30.067Z,21.55
2023-05-24T15:51:53.581Z,21.53
2023-05-24T15:53:50.423Z,21.53
2023-05-24T15:56:18.527Z,21.55
2023-05-24T15:58:46.544Z,21.57
2023-05-24T16:01:14.687Z,21.58
2023-05-24T16:03:42.757Z,21.63
2023-05-24T16:06:11.037Z,21.66
2023-05-24T16:08:39.058Z,21.69
2023-05-24T16:11:08.680Z,21.69
2023-05-24T16:13:36.653Z,21.70
2023-05-24T16:16:04.932Z,21.72
2023-05-24T16:18:35.792Z,21.72
2023-05-24T16:21:04.333Z,21.72
2023-05-24T16:23:32.900Z,21.72
2023-05-24T16:26:01.063Z,21.69
2023-05-24T16:28:29.241Z,21.67
2023-05-24T16:30:59.118Z,21.65
2023-05-24T16:33:27.045Z,21.65
2023-05-24T16:36:01.200Z,21.65
2023-05-24T16:38:32.174Z,21.63
2023-05-24T16:41:03.279Z,21.62
2023-05-24T16:43:32.152Z,21.62
2023-05-24T16:46:00.969Z,21.60
2023-05-24T16:48:31.839Z,21.60
2023-05-24T16:51:00.949Z,21.59
2023-05-24T16:53:29.259Z,21.58
2023-05-24T16:55:58.305Z,21.58
2023-05-24T16:58:31.053Z,21.57
2023-05-24T17:00:59.487Z,21.56
2023-05-24T17:03:32.336Z,21.54
2023-05-24T17:06:04.286Z,21.52
2023-05-24T17:08:38.783Z,21.49
2023-05-24T17:11:06.862Z,21.46
2023-05-24T17:13:34.984Z,21.43
2023-05-24T17:16:04.315Z,21.40
2023-05-24T17:18:32.975Z,21.36
2023-05-24T17:21:03.327Z,21.30
2023-05-24T17:23:36.831Z,21.25
2023-05-24T17:26:06.088Z,21.18
2023-05-24T17:28:41.514Z,21.08
2023-05-24T17:31:09.863Z,21.02
2023-05-24T17:33:37.969Z,20.98
2023-05-24T17:36:07.385Z,20.95
2023-05-24T17:38:38.220Z,20.91
2023-05-24T17:41:26.779Z,20.90
2023-05-24T17:43:54.735Z,20.89
2023-05-24T17:46:22.985Z,20.88
2023-05-24T17:48:52.159Z,20.88
2023-05-24T17:51:20.311Z,20.88
2023-05-24T17:53:48.405Z,20.86
2023-05-24T17:56:16.936Z,20.84
2023-05-24T17:58:46.867Z,20.82
2023-05-24T18:01:15.984Z,20.83
2023-05-24T18:03:44.379Z,20.84
2023-05-24T18:06:12.434Z,20.82
2023-05-24T18:08:43.925Z,20.77
2023-05-24T18:11:13.867Z,20.73
2023-05-24T18:13:42.690Z,20.71
2023-05-24T18:16:11.614Z,20.70
2023-05-24T18:18:40.564Z,20.71
2023-05-24T18:21:09.976Z,20.70
2023-05-24T18:23:39.652Z,20.69
2023-05-24T18:26:09.142Z,20.68
2023-05-24T18:28:37.993Z,20.67
2023-05-24T18:31:08.761Z,20.64
2023-05-24T18:33:38.137Z,20.58
2023-05-24T18:36:06.679Z,20.55
2023-05-24T18:38:34.991Z,20.55
2023-05-24T18:41:06.083Z,20.53
2023-05-24T18:43:34.540Z,20.47
2023-05-24T18:46:02.932Z,20.42
2023-05-24T18:48:31.154Z,20.38
2023-05-24T18:50:59.486Z,20.37
2023-05-24T18:53:27.704Z,20.36
2023-05-24T18:55:56.165Z,20.34
2023-05-24T18:58:24.341Z,20.31
2023-05-24T19:00:52.321Z,20.25
2023-05-24T19:03:22.332Z,20.18
2023-05-24T19:05:53.037Z,20.13
2023-05-24T19:08:21.417Z,20.12
2023-05-24T19:10:49.635Z,20.11
2023-05-24T19:13:18.723Z,20.11
2023-05-24T19:15:46.857Z,20.09
2023-05-24T19:18:15.041Z,20.04
2023-05-24T19:20:43.506Z,19.99
2023-05-24T19:23:11.579Z,19.96
2023-05-24T19:25:42.144Z,19.94
2023-05-24T19:28:11.010Z,19.92
2023-05-24T19:30:39.078Z,19.91
2023-05-24T19:33:07.769Z,19.89
2023-05-24T19:35:37.098Z,19.87
2023-05-24T19:38:05.067Z,19.85
2023-05-24T19:40:33.307Z,19.84
2023-05-24T19:43:01.304Z,19.86
2023-05-24T19:45:29.339Z,19.85
2023-05-24T19:47:57.421Z,19.85
2023-05-24T19:50:26.729Z,19.84
2023-05-24T19:52:58.629Z,19.84
2023-05-24T19:55:26.738Z,19.84
2023-05-24T19:57:54.799Z,19.83
2023-05-24T20:00:22.763Z,19.81
2023-05-24T20:02:50.894Z,19.77
2023-05-24T20:05:19.184Z,19.76
2023-05-24T20:07:47.116Z,19.76
2023-05-24T20:10:15.254Z,19.77
2023-05-24T20:12:43.654Z,19.75
2023-05-24T20:15:15.249Z,19.74
2023-05-24T20:17:45.913Z,19.73
2023-05-24T20:20:14.394Z,19.73
2023-05-24T20:22:42.603Z,19.73
2023-05-24T20:25:11.161Z,19.72
2023-05-24T20:27:40.748Z,19.69
2023-05-24T20:30:10.023Z,19.64
2023-05-24T20:32:38.365Z,19.61
2023-05-24T20:35:07.263Z,19.57
2023-05-24T20:37:35.325Z,19.53
2023-05-24T20:40:07.618Z,19.50
2023-05-24T20:42:35.998Z,19.51
2023-05-24T20:45:04.261Z,19.52
2023-05-24T20:47:32.258Z,19.54
2023-05-24T20:50:00.253Z,19.53
2023-05-24T20:52:28.186Z,19.54
2023-05-24T20:54:56.784Z,19.55
2023-05-24T20:57:24.811Z,19.59
2023-05-24T20:59:54.705Z,19.59
2023-05-24T21:02:25.564Z,19.58
2023-05-24T21:04:53.731Z,19.57
2023-05-24T21:07:22.393Z,19.58
2023-05-24T21:09:50.357Z,19.58
2023-05-24T21:12:18.455Z,19.57
2023-05-24T21:14:46.492Z,19.56
2023-05-24T21:17:14.639Z,19.55
2023-05-24T21:19:42.482Z,19.53
2023-05-24T21:22:10.670Z,19.51
2023-05-24T21:24:39.206Z,19.50
2023-05-24T21:27:08.143Z,19.49
2023-05-24T21:29:38.368Z,19.50
2023-05-24T21:32:07.378Z,19.51
2023-05-24T21:34:36.751Z,19.49
2023-05-24T21:37:05.274Z,19.47
2023-05-24T21:39:33.412Z,19.45
2023-05-24T21:42:02.404Z,19.43
2023-05-24T21:44:30.454Z,19.43
2023-05-24T21:46:58.569Z,19.43
2023-05-24T21:49:27.717Z,19.42
2023-05-24T21:51:55.612Z,19.41
2023-05-24T21:54:23.477Z,19.37
2023-05-24T21:56:51.440Z,19.32
2023-05-24T21:59:21.527Z,19.26
2023-05-24T22:01:49.558Z,19.25
2023-05-24T22:04:17.963Z,19.25
2023-05-24T22:06:46.621Z,19.25
2023-05-24T22:09:15.043Z,19.26
2023-05-24T22:11:43.061Z,19.27
2023-05-24T22:14:11.096Z,19.26
2023-05-24T22:16:39.283Z,19.24
2023-05-24T22:19:16.435Z,19.23
2023-05-24T22:21:46.124Z,19.22
2023-05-24T22:24:14.270Z,19.21
2023-05-24T22:26:46.909Z,19.19
2023-05-24T22:29:15.074Z,19.16
2023-05-24T22:31:44.167Z,19.13
2023-05-24T22:34:12.274Z,19.10
2023-05-24T22:36:40.193Z,19.07
2023-05-24T22:39:08.167Z,19.06
2023-05-24T22:41:36.380Z,19.05
2023-05-24T22:44:04.262Z,18.98
2023-05-24T22:46:32.338Z,18.91
2023-05-24T22:49:03.317Z,18.86
2023-05-24T22:51:32.844Z,18.82
2023-05-24T22:54:00.813Z,18.77
2023-05-24T22:56:28.937Z,18.74
2023-05-24T22:58:58.050Z,18.73
2023-05-24T23:01:27.183Z,18.71
2023-05-24T23:04:11.619Z,18.71
2023-05-24T23:06:47.115Z,18.72
2023-05-24T23:09:15.732Z,18.68
2023-05-24T23:11:44.688Z,18.65
2023-05-24T23:14:12.649Z,18.61
2023-05-24T23:17:02.870Z,18.59
2023-05-24T23:19:31.941Z,18.59
2023-05-24T23:21:59.999Z,18.58
2023-05-24T23:24:28.164Z,18.57
2023-05-24T23:26:57.253Z,18.59
2023-05-24T23:29:25.419Z,18.62
2023-05-24T23:31:54.443Z,18.62
2023-05-24T23:34:21.983Z,18.65
2023-05-24T23:36:50.712Z,18.69
2023-05-24T23:39:18.313Z,18.70
2023-05-24T23:41:48.077Z,18.72
2023-05-24T23:44:16.160Z,18.72
2023-05-24T23:46:44.455Z,18.70
2023-05-24T23:49:12.951Z,18.70
2023-05-24T23:51:41.268Z,18.66
2023-05-24T23:54:09.000Z,18.60
2023-05-24T23:56:43.703Z,18.58
2023-05-24T23:59:11.202Z,18.60
